De Doornakkers, Netherlands
Current Conditions -  °F | °C
As of 3:41 PM on Thursday 23 Oct 2014 (Local Time) from EHEH Reporting Station
Overcast Overcast  
Wind Chill: 57°   Ceiling: 2600
Heat Index: 57°   Visibility: 6mi
Dew Point: 48°   Wind: 13mph
Humidity: 72%   Direction: 210°SSW
Pressure: 30.18"   Gusts: NA
Location:  51.44°N, 5.51°E
Report Text: EHEH 231341Z AUTO 21011KT 9999 FEW021 BKN026 OVC046 14/09 Q1022 BLU 22010KT 9999 SCT023 BKN035
Loading
Personal Weather Stations






























Interactive Weather Map
Tropical Storm Tracking
New forecast layout! Learn more

10-Day Weather Forecast

Advertisements
Track Severe Weather on mobile